sensor_id;sensor_type;location;lat;lon;timestamp;P1;durP1;ratioP1;P2;durP2;ratioP2
12886;SDS011;6511;49.746;6.094;2023-05-07T00:02:20;7.32;;;6.20;;
12886;SDS011;6511;49.746;6.094;2023-05-07T00:04:46;8.73;;;6.27;;
12886;SDS011;6511;49.746;6.094;2023-05-07T00:07:12;7.65;;;6.43;;
12886;SDS011;6511;49.746;6.094;2023-05-07T00:09:37;8.98;;;6.50;;
12886;SDS011;6511;49.746;6.094;2023-05-07T00:12:03;9.37;;;6.70;;
12886;SDS011;6511;49.746;6.094;2023-05-07T00:14:29;8.48;;;6.97;;
12886;SDS011;6511;49.746;6.094;2023-05-07T00:16:55;9.15;;;7.28;;
12886;SDS011;6511;49.746;6.094;2023-05-07T00:19:20;8.73;;;7.40;;
12886;SDS011;6511;49.746;6.094;2023-05-07T00:21:46;9.45;;;7.53;;
12886;SDS011;6511;49.746;6.094;2023-05-07T00:24:11;10.37;;;7.37;;
12886;SDS011;6511;49.746;6.094;2023-05-07T00:26:37;10.77;;;7.40;;
12886;SDS011;6511;49.746;6.094;2023-05-07T00:29:03;10.10;;;7.50;;
12886;SDS011;6511;49.746;6.094;2023-05-07T00:31:28;8.37;;;6.40;;
12886;SDS011;6511;49.746;6.094;2023-05-07T00:33:54;8.87;;;6.40;;
12886;SDS011;6511;49.746;6.094;2023-05-07T00:36:20;8.95;;;6.75;;
12886;SDS011;6511;49.746;6.094;2023-05-07T00:38:45;9.53;;;7.00;;
12886;SDS011;6511;49.746;6.094;2023-05-07T00:41:11;8.10;;;6.60;;
12886;SDS011;6511;49.746;6.094;2023-05-07T00:43:36;8.80;;;6.78;;
12886;SDS011;6511;49.746;6.094;2023-05-07T00:46:02;8.00;;;6.87;;
12886;SDS011;6511;49.746;6.094;2023-05-07T00:48:28;7.53;;;6.20;;
12886;SDS011;6511;49.746;6.094;2023-05-07T00:50:55;8.52;;;7.10;;
12886;SDS011;6511;49.746;6.094;2023-05-07T00:53:21;9.70;;;6.97;;
12886;SDS011;6511;49.746;6.094;2023-05-07T00:55:47;8.73;;;6.82;;
12886;SDS011;6511;49.746;6.094;2023-05-07T00:58:13;8.50;;;6.55;;
12886;SDS011;6511;49.746;6.094;2023-05-07T01:00:39;10.40;;;7.20;;
12886;SDS011;6511;49.746;6.094;2023-05-07T01:03:05;8.95;;;6.70;;
12886;SDS011;6511;49.746;6.094;2023-05-07T01:05:31;10.07;;;6.93;;
12886;SDS011;6511;49.746;6.094;2023-05-07T01:07:57;10.20;;;7.13;;
12886;SDS011;6511;49.746;6.094;2023-05-07T01:10:24;12.25;;;7.38;;
12886;SDS011;6511;49.746;6.094;2023-05-07T01:12:50;10.82;;;7.22;;
12886;SDS011;6511;49.746;6.094;2023-05-07T01:15:17;10.55;;;7.30;;
12886;SDS011;6511;49.746;6.094;2023-05-07T01:17:43;12.05;;;8.07;;
12886;SDS011;6511;49.746;6.094;2023-05-07T01:20:09;11.77;;;7.75;;
12886;SDS011;6511;49.746;6.094;2023-05-07T01:22:38;13.13;;;7.40;;
12886;SDS011;6511;49.746;6.094;2023-05-07T01:25:05;10.88;;;7.68;;
12886;SDS011;6511;49.746;6.094;2023-05-07T01:27:32;8.73;;;6.95;;
12886;SDS011;6511;49.746;6.094;2023-05-07T01:29:58;11.55;;;7.93;;
12886;SDS011;6511;49.746;6.094;2023-05-07T01:32:28;10.87;;;7.77;;
12886;SDS011;6511;49.746;6.094;2023-05-07T01:35:05;11.73;;;8.32;;
12886;SDS011;6511;49.746;6.094;2023-05-07T01:37:34;13.93;;;7.93;;
12886;SDS011;6511;49.746;6.094;2023-05-07T01:40:01;12.77;;;8.55;;
12886;SDS011;6511;49.746;6.094;2023-05-07T01:42:28;12.65;;;9.52;;
12886;SDS011;6511;49.746;6.094;2023-05-07T01:44:54;16.60;;;10.70;;
12886;SDS011;6511;49.746;6.094;2023-05-07T01:47:20;13.93;;;9.53;;
12886;SDS011;6511;49.746;6.094;2023-05-07T01:49:46;15.27;;;10.00;;
12886;SDS011;6511;49.746;6.094;2023-05-07T01:52:12;13.30;;;9.25;;
12886;SDS011;6511;49.746;6.094;2023-05-07T01:54:38;11.40;;;8.35;;
12886;SDS011;6511;49.746;6.094;2023-05-07T01:57:04;12.00;;;8.60;;
12886;SDS011;6511;49.746;6.094;2023-05-07T01:59:29;14.10;;;9.27;;
12886;SDS011;6511;49.746;6.094;2023-05-07T02:01:55;15.55;;;9.40;;
12886;SDS011;6511;49.746;6.094;2023-05-07T02:04:21;16.03;;;8.93;;
12886;SDS011;6511;49.746;6.094;2023-05-07T02:06:46;18.63;;;10.30;;
12886;SDS011;6511;49.746;6.094;2023-05-07T02:09:13;17.70;;;10.25;;
12886;SDS011;6511;49.746;6.094;2023-05-07T02:11:39;15.52;;;9.60;;
12886;SDS011;6511;49.746;6.094;2023-05-07T02:14:05;12.77;;;8.67;;
12886;SDS011;6511;49.746;6.094;2023-05-07T02:16:31;18.55;;;11.48;;
12886;SDS011;6511;49.746;6.094;2023-05-07T02:18:56;13.00;;;8.93;;
12886;SDS011;6511;49.746;6.094;2023-05-07T02:21:23;14.75;;;9.18;;
12886;SDS011;6511;49.746;6.094;2023-05-07T02:23:50;14.23;;;9.85;;
12886;SDS011;6511;49.746;6.094;2023-05-07T02:26:15;13.90;;;10.15;;
12886;SDS011;6511;49.746;6.094;2023-05-07T02:28:41;13.77;;;9.10;;
12886;SDS011;6511;49.746;6.094;2023-05-07T02:31:07;13.98;;;9.35;;
12886;SDS011;6511;49.746;6.094;2023-05-07T02:33:32;14.50;;;10.00;;
12886;SDS011;6511;49.746;6.094;2023-05-07T02:36:09;15.27;;;9.90;;
12886;SDS011;6511;49.746;6.094;2023-05-07T02:38:35;11.43;;;8.07;;
12886;SDS011;6511;49.746;6.094;2023-05-07T02:41:01;11.73;;;8.43;;
12886;SDS011;6511;49.746;6.094;2023-05-07T02:43:27;14.00;;;9.10;;
12886;SDS011;6511;49.746;6.094;2023-05-07T02:46:00;21.98;;;10.85;;
12886;SDS011;6511;49.746;6.094;2023-05-07T02:48:27;21.40;;;11.27;;
12886;SDS011;6511;49.746;6.094;2023-05-07T02:50:53;19.77;;;10.55;;
12886;SDS011;6511;49.746;6.094;2023-05-07T02:53:19;20.13;;;10.32;;
12886;SDS011;6511;49.746;6.094;2023-05-07T02:55:44;17.63;;;10.27;;
12886;SDS011;6511;49.746;6.094;2023-05-07T02:58:10;17.58;;;9.65;;
12886;SDS011;6511;49.746;6.094;2023-05-07T03:00:36;15.70;;;9.30;;
12886;SDS011;6511;49.746;6.094;2023-05-07T03:03:01;12.48;;;8.00;;
12886;SDS011;6511;49.746;6.094;2023-05-07T03:05:27;12.70;;;8.27;;
12886;SDS011;6511;49.746;6.094;2023-05-07T03:07:53;13.90;;;8.33;;
12886;SDS011;6511;49.746;6.094;2023-05-07T03:10:18;15.48;;;8.55;;
12886;SDS011;6511;49.746;6.094;2023-05-07T03:12:44;15.60;;;8.30;;
12886;SDS011;6511;49.746;6.094;2023-05-07T03:15:10;13.70;;;8.35;;
12886;SDS011;6511;49.746;6.094;2023-05-07T03:17:37;13.67;;;8.93;;
12886;SDS011;6511;49.746;6.094;2023-05-07T03:20:03;14.73;;;9.48;;
12886;SDS011;6511;49.746;6.094;2023-05-07T03:22:29;14.77;;;9.30;;
12886;SDS011;6511;49.746;6.094;2023-05-07T03:24:55;15.43;;;9.47;;
12886;SDS011;6511;49.746;6.094;2023-05-07T03:27:20;13.85;;;9.30;;
12886;SDS011;6511;49.746;6.094;2023-05-07T03:29:46;13.23;;;9.00;;
12886;SDS011;6511;49.746;6.094;2023-05-07T03:32:12;17.38;;;9.63;;
12886;SDS011;6511;49.746;6.094;2023-05-07T03:34:38;13.93;;;8.40;;
12886;SDS011;6511;49.746;6.094;2023-05-07T03:37:04;15.20;;;9.32;;
12886;SDS011;6511;49.746;6.094;2023-05-07T03:39:29;15.87;;;9.03;;
12886;SDS011;6511;49.746;6.094;2023-05-07T03:41:55;17.30;;;8.95;;
12886;SDS011;6511;49.746;6.094;2023-05-07T03:44:21;16.40;;;8.02;;
12886;SDS011;6511;49.746;6.094;2023-05-07T03:46:47;16.52;;;8.20;;
12886;SDS011;6511;49.746;6.094;2023-05-07T03:49:13;13.63;;;7.97;;
12886;SDS011;6511;49.746;6.094;2023-05-07T03:51:38;14.90;;;8.55;;
12886;SDS011;6511;49.746;6.094;2023-05-07T03:54:04;17.02;;;8.63;;
12886;SDS011;6511;49.746;6.094;2023-05-07T03:56:30;14.33;;;8.00;;
12886;SDS011;6511;49.746;6.094;2023-05-07T03:58:56;15.18;;;8.13;;
12886;SDS011;6511;49.746;6.094;2023-05-07T04:01:21;14.33;;;8.00;;
12886;SDS011;6511;49.746;6.094;2023-05-07T04:03:47;16.85;;;8.57;;
12886;SDS011;6511;49.746;6.094;2023-05-07T04:06:13;29.07;;;8.27;;
12886;SDS011;6511;49.746;6.094;2023-05-07T04:08:40;20.17;;;9.90;;
12886;SDS011;6511;49.746;6.094;2023-05-07T04:11:06;17.37;;;10.07;;
12886;SDS011;6511;49.746;6.094;2023-05-07T04:13:31;15.90;;;10.65;;
12886;SDS011;6511;49.746;6.094;2023-05-07T04:15:57;18.43;;;11.10;;
12886;SDS011;6511;49.746;6.094;2023-05-07T04:18:23;16.00;;;10.03;;
12886;SDS011;6511;49.746;6.094;2023-05-07T04:20:48;15.60;;;10.20;;
12886;SDS011;6511;49.746;6.094;2023-05-07T04:23:15;18.52;;;10.50;;
12886;SDS011;6511;49.746;6.094;2023-05-07T04:25:40;16.83;;;10.10;;
12886;SDS011;6511;49.746;6.094;2023-05-07T04:28:06;15.23;;;9.93;;
12886;SDS011;6511;49.746;6.094;2023-05-07T04:30:32;17.33;;;10.37;;
12886;SDS011;6511;49.746;6.094;2023-05-07T04:32:58;16.15;;;10.68;;
12886;SDS011;6511;49.746;6.094;2023-05-07T04:35:23;26.98;;;10.63;;
12886;SDS011;6511;49.746;6.094;2023-05-07T04:37:49;14.47;;;8.40;;
12886;SDS011;6511;49.746;6.094;2023-05-07T04:40:15;10.02;;;7.10;;
12886;SDS011;6511;49.746;6.094;2023-05-07T04:42:41;9.20;;;6.67;;
12886;SDS011;6511;49.746;6.094;2023-05-07T04:45:07;10.93;;;6.82;;
12886;SDS011;6511;49.746;6.094;2023-05-07T04:47:33;11.00;;;7.00;;
12886;SDS011;6511;49.746;6.094;2023-05-07T04:49:59;12.38;;;6.90;;
12886;SDS011;6511;49.746;6.094;2023-05-07T04:52:25;8.33;;;6.07;;
12886;SDS011;6511;49.746;6.094;2023-05-07T04:54:50;7.30;;;5.87;;
12886;SDS011;6511;49.746;6.094;2023-05-07T04:57:16;5.93;;;4.93;;
12886;SDS011;6511;49.746;6.094;2023-05-07T04:59:42;6.10;;;4.60;;
12886;SDS011;6511;49.746;6.094;2023-05-07T05:02:09;6.22;;;4.93;;
12886;SDS011;6511;49.746;6.094;2023-05-07T05:04:35;5.97;;;4.57;;
12886;SDS011;6511;49.746;6.094;2023-05-07T05:07:02;5.45;;;4.22;;
12886;SDS011;6511;49.746;6.094;2023-05-07T05:09:29;6.07;;;4.60;;
12886;SDS011;6511;49.746;6.094;2023-05-07T05:11:55;5.07;;;4.50;;
12886;SDS011;6511;49.746;6.094;2023-05-07T05:14:21;5.27;;;4.70;;
12886;SDS011;6511;49.746;6.094;2023-05-07T05:16:46;7.45;;;6.10;;
12886;SDS011;6511;49.746;6.094;2023-05-07T05:19:12;7.03;;;6.32;;
12886;SDS011;6511;49.746;6.094;2023-05-07T05:21:37;6.17;;;5.57;;
12886;SDS011;6511;49.746;6.094;2023-05-07T05:24:03;7.30;;;5.50;;
12886;SDS011;6511;49.746;6.094;2023-05-07T05:26:29;6.05;;;5.45;;
12886;SDS011;6511;49.746;6.094;2023-05-07T05:28:54;6.07;;;5.47;;
12886;SDS011;6511;49.746;6.094;2023-05-07T05:31:20;6.35;;;4.93;;
12886;SDS011;6511;49.746;6.094;2023-05-07T05:33:46;7.15;;;4.85;;
12886;SDS011;6511;49.746;6.094;2023-05-07T05:36:12;5.27;;;4.77;;
12886;SDS011;6511;49.746;6.094;2023-05-07T05:38:38;4.85;;;4.38;;
12886;SDS011;6511;49.746;6.094;2023-05-07T05:41:04;5.00;;;4.50;;
12886;SDS011;6511;49.746;6.094;2023-05-07T05:43:30;4.78;;;4.30;;
12886;SDS011;6511;49.746;6.094;2023-05-07T05:45:56;4.38;;;3.97;;
12886;SDS011;6511;49.746;6.094;2023-05-07T05:48:22;4.03;;;3.70;;
12886;SDS011;6511;49.746;6.094;2023-05-07T05:50:48;4.13;;;3.72;;
12886;SDS011;6511;49.746;6.094;2023-05-07T05:53:14;4.00;;;3.60;;
12886;SDS011;6511;49.746;6.094;2023-05-07T05:55:40;4.03;;;3.60;;
12886;SDS011;6511;49.746;6.094;2023-05-07T05:58:07;4.22;;;3.83;;
12886;SDS011;6511;49.746;6.094;2023-05-07T06:00:33;4.50;;;3.55;;
12886;SDS011;6511;49.746;6.094;2023-05-07T06:02:59;4.20;;;3.80;;
12886;SDS011;6511;49.746;6.094;2023-05-07T06:05:25;3.65;;;3.33;;
12886;SDS011;6511;49.746;6.094;2023-05-07T06:07:50;3.37;;;3.07;;
12886;SDS011;6511;49.746;6.094;2023-05-07T06:10:16;3.60;;;3.30;;
12886;SDS011;6511;49.746;6.094;2023-05-07T06:12:42;3.65;;;3.20;;
12886;SDS011;6511;49.746;6.094;2023-05-07T06:15:07;3.50;;;3.20;;
12886;SDS011;6511;49.746;6.094;2023-05-07T06:17:33;3.45;;;3.10;;
12886;SDS011;6511;49.746;6.094;2023-05-07T06:19:59;3.95;;;3.40;;
12886;SDS011;6511;49.746;6.094;2023-05-07T06:22:25;3.70;;;3.40;;
12886;SDS011;6511;49.746;6.094;2023-05-07T06:24:50;3.40;;;3.10;;
12886;SDS011;6511;49.746;6.094;2023-05-07T06:27:16;3.72;;;3.40;;
12886;SDS011;6511;49.746;6.094;2023-05-07T06:29:42;3.20;;;2.87;;
12886;SDS011;6511;49.746;6.094;2023-05-07T06:32:11;3.40;;;2.80;;
12886;SDS011;6511;49.746;6.094;2023-05-07T06:34:38;4.22;;;3.00;;
12886;SDS011;6511;49.746;6.094;2023-05-07T06:37:04;3.67;;;3.25;;
12886;SDS011;6511;49.746;6.094;2023-05-07T06:39:30;3.40;;;3.10;;
12886;SDS011;6511;49.746;6.094;2023-05-07T06:41:56;3.35;;;3.05;;
12886;SDS011;6511;49.746;6.094;2023-05-07T06:44:22;3.60;;;3.20;;
12886;SDS011;6511;49.746;6.094;2023-05-07T06:46:47;3.78;;;3.00;;
12886;SDS011;6511;49.746;6.094;2023-05-07T06:49:13;4.63;;;2.90;;
12886;SDS011;6511;49.746;6.094;2023-05-07T06:51:39;4.13;;;3.10;;
12886;SDS011;6511;49.746;6.094;2023-05-07T06:54:05;3.40;;;3.10;;
12886;SDS011;6511;49.746;6.094;2023-05-07T06:56:31;4.20;;;3.00;;
12886;SDS011;6511;49.746;6.094;2023-05-07T06:58:57;4.10;;;3.10;;
12886;SDS011;6511;49.746;6.094;2023-05-07T07:01:22;3.33;;;3.03;;
12886;SDS011;6511;49.746;6.094;2023-05-07T07:03:48;3.53;;;3.10;;
12886;SDS011;6511;49.746;6.094;2023-05-07T07:06:14;3.47;;;3.17;;
12886;SDS011;6511;49.746;6.094;2023-05-07T07:08:39;3.38;;;3.00;;
12886;SDS011;6511;49.746;6.094;2023-05-07T07:11:05;4.13;;;2.90;;
12886;SDS011;6511;49.746;6.094;2023-05-07T07:13:31;3.38;;;2.95;;
12886;SDS011;6511;49.746;6.094;2023-05-07T07:15:57;3.17;;;2.83;;
12886;SDS011;6511;49.746;6.094;2023-05-07T07:18:23;3.60;;;2.83;;
12886;SDS011;6511;49.746;6.094;2023-05-07T07:20:48;3.85;;;2.80;;
12886;SDS011;6511;49.746;6.094;2023-05-07T07:23:14;3.42;;;2.90;;
12886;SDS011;6511;49.746;6.094;2023-05-07T07:25:40;3.63;;;3.00;;
12886;SDS011;6511;49.746;6.094;2023-05-07T07:28:06;3.25;;;2.67;;
12886;SDS011;6511;49.746;6.094;2023-05-07T07:30:32;3.67;;;3.00;;
12886;SDS011;6511;49.746;6.094;2023-05-07T07:32:57;2.97;;;2.77;;
12886;SDS011;6511;49.746;6.094;2023-05-07T07:35:28;2.85;;;2.60;;
12886;SDS011;6511;49.746;6.094;2023-05-07T07:37:54;4.78;;;2.55;;
12886;SDS011;6511;49.746;6.094;2023-05-07T07:40:20;3.10;;;2.50;;
12886;SDS011;6511;49.746;6.094;2023-05-07T07:42:46;4.30;;;3.10;;
12886;SDS011;6511;49.746;6.094;2023-05-07T07:45:11;2.80;;;2.50;;
12886;SDS011;6511;49.746;6.094;2023-05-07T07:47:37;3.15;;;2.55;;
12886;SDS011;6511;49.746;6.094;2023-05-07T07:50:05;3.58;;;2.70;;
12886;SDS011;6511;49.746;6.094;2023-05-07T07:52:31;2.50;;;2.30;;
12886;SDS011;6511;49.746;6.094;2023-05-07T07:54:57;2.50;;;2.30;;
12886;SDS011;6511;49.746;6.094;2023-05-07T07:57:22;2.30;;;2.10;;
12886;SDS011;6511;49.746;6.094;2023-05-07T07:59:48;2.30;;;2.10;;
12886;SDS011;6511;49.746;6.094;2023-05-07T08:02:15;3.63;;;2.28;;
12886;SDS011;6511;49.746;6.094;2023-05-07T08:04:40;2.60;;;2.40;;
12886;SDS011;6511;49.746;6.094;2023-05-07T08:07:08;3.13;;;2.13;;
12886;SDS011;6511;49.746;6.094;2023-05-07T08:09:34;2.70;;;2.30;;
12886;SDS011;6511;49.746;6.094;2023-05-07T08:12:00;2.42;;;2.13;;
12886;SDS011;6511;49.746;6.094;2023-05-07T08:14:26;2.50;;;2.30;;
12886;SDS011;6511;49.746;6.094;2023-05-07T08:16:53;2.40;;;2.20;;
12886;SDS011;6511;49.746;6.094;2023-05-07T08:19:19;2.83;;;2.50;;
12886;SDS011;6511;49.746;6.094;2023-05-07T08:21:45;2.63;;;2.15;;
12886;SDS011;6511;49.746;6.094;2023-05-07T08:24:13;3.03;;;2.40;;
12886;SDS011;6511;49.746;6.094;2023-05-07T08:26:42;2.55;;;2.33;;
12886;SDS011;6511;49.746;6.094;2023-05-07T08:29:08;2.55;;;2.33;;
12886;SDS011;6511;49.746;6.094;2023-05-07T08:31:34;2.80;;;2.40;;
12886;SDS011;6511;49.746;6.094;2023-05-07T08:34:00;2.67;;;2.42;;
12886;SDS011;6511;49.746;6.094;2023-05-07T08:36:25;2.78;;;2.42;;
12886;SDS011;6511;49.746;6.094;2023-05-07T08:38:51;3.00;;;2.70;;
12886;SDS011;6511;49.746;6.094;2023-05-07T08:41:17;2.75;;;2.30;;
12886;SDS011;6511;49.746;6.094;2023-05-07T08:43:45;3.15;;;2.38;;
12886;SDS011;6511;49.746;6.094;2023-05-07T08:46:15;2.88;;;2.60;;
12886;SDS011;6511;49.746;6.094;2023-05-07T08:48:48;2.47;;;2.20;;
12886;SDS011;6511;49.746;6.094;2023-05-07T08:51:19;2.63;;;2.20;;
12886;SDS011;6511;49.746;6.094;2023-05-07T08:53:46;3.40;;;2.50;;
12886;SDS011;6511;49.746;6.094;2023-05-07T08:56:16;2.80;;;2.30;;
12886;SDS011;6511;49.746;6.094;2023-05-07T08:58:43;3.25;;;2.45;;
12886;SDS011;6511;49.746;6.094;2023-05-07T09:01:10;2.90;;;2.60;;
12886;SDS011;6511;49.746;6.094;2023-05-07T09:03:39;3.07;;;2.30;;
12886;SDS011;6511;49.746;6.094;2023-05-07T09:06:05;2.90;;;2.60;;
12886;SDS011;6511;49.746;6.094;2023-05-07T09:08:34;2.47;;;2.28;;
12886;SDS011;6511;49.746;6.094;2023-05-07T09:11:01;3.45;;;2.35;;
12886;SDS011;6511;49.746;6.094;2023-05-07T09:13:27;3.45;;;2.63;;
12886;SDS011;6511;49.746;6.094;2023-05-07T09:15:53;3.42;;;2.80;;
12886;SDS011;6511;49.746;6.094;2023-05-07T09:18:18;2.60;;;2.40;;
12886;SDS011;6511;49.746;6.094;2023-05-07T09:20:44;3.13;;;2.80;;
12886;SDS011;6511;49.746;6.094;2023-05-07T09:23:10;2.90;;;2.70;;
12886;SDS011;6511;49.746;6.094;2023-05-07T09:25:36;2.65;;;2.30;;
12886;SDS011;6511;49.746;6.094;2023-05-07T09:28:02;2.88;;;2.60;;
12886;SDS011;6511;49.746;6.094;2023-05-07T09:30:32;2.75;;;2.38;;
12886;SDS011;6511;49.746;6.094;2023-05-07T09:33:00;2.70;;;2.23;;
12886;SDS011;6511;49.746;6.094;2023-05-07T09:35:26;2.40;;;2.20;;
12886;SDS011;6511;49.746;6.094;2023-05-07T09:37:53;9.88;;;6.53;;
12886;SDS011;6511;49.746;6.094;2023-05-07T09:40:24;10.35;;;8.77;;
12886;SDS011;6511;49.746;6.094;2023-05-07T09:42:51;2.70;;;2.13;;
12886;SDS011;6511;49.746;6.094;2023-05-07T09:45:29;2.38;;;2.10;;
12886;SDS011;6511;49.746;6.094;2023-05-07T09:47:57;3.00;;;2.20;;
12886;SDS011;6511;49.746;6.094;2023-05-07T09:50:30;2.20;;;2.00;;
12886;SDS011;6511;49.746;6.094;2023-05-07T09:53:01;3.10;;;2.17;;
12886;SDS011;6511;49.746;6.094;2023-05-07T09:55:28;3.58;;;2.20;;
12886;SDS011;6511;49.746;6.094;2023-05-07T09:57:55;3.08;;;2.50;;
12886;SDS011;6511;49.746;6.094;2023-05-07T10:00:22;3.08;;;2.45;;
12886;SDS011;6511;49.746;6.094;2023-05-07T10:02:49;3.15;;;2.20;;
12886;SDS011;6511;49.746;6.094;2023-05-07T10:05:17;2.83;;;2.20;;
12886;SDS011;6511;49.746;6.094;2023-05-07T10:07:44;3.67;;;2.40;;
12886;SDS011;6511;49.746;6.094;2023-05-07T10:10:11;2.73;;;2.53;;
12886;SDS011;6511;49.746;6.094;2023-05-07T10:12:37;3.30;;;2.53;;
12886;SDS011;6511;49.746;6.094;2023-05-07T10:15:06;3.13;;;2.35;;
12886;SDS011;6511;49.746;6.094;2023-05-07T10:17:34;2.70;;;2.00;;
12886;SDS011;6511;49.746;6.094;2023-05-07T10:20:04;2.40;;;2.20;;
12886;SDS011;6511;49.746;6.094;2023-05-07T10:22:33;3.88;;;2.60;;
12886;SDS011;6511;49.746;6.094;2023-05-07T10:25:23;3.13;;;2.83;;
12886;SDS011;6511;49.746;6.094;2023-05-07T10:27:57;2.90;;;2.35;;
12886;SDS011;6511;49.746;6.094;2023-05-07T10:56:36;1.70;;;1.52;;
12886;SDS011;6511;49.746;6.094;2023-05-07T11:01:56;3.17;;;1.70;;
12886;SDS011;6511;49.746;6.094;2023-05-07T11:04:23;2.07;;;1.63;;
12886;SDS011;6511;49.746;6.094;2023-05-07T11:07:09;3.00;;;2.10;;
12886;SDS011;6511;49.746;6.094;2023-05-07T11:15:01;2.05;;;1.50;;
12886;SDS011;6511;49.746;6.094;2023-05-07T11:17:27;1.58;;;1.48;;
12886;SDS011;6511;49.746;6.094;2023-05-07T11:19:56;2.03;;;1.50;;
12886;SDS011;6511;49.746;6.094;2023-05-07T11:25:01;1.60;;;1.40;;
12886;SDS011;6511;49.746;6.094;2023-05-07T11:27:28;2.80;;;1.50;;
12886;SDS011;6511;49.746;6.094;2023-05-07T11:29:54;1.50;;;1.40;;
12886;SDS011;6511;49.746;6.094;2023-05-07T11:32:23;1.50;;;1.40;;
12886;SDS011;6511;49.746;6.094;2023-05-07T11:34:55;2.47;;;1.50;;
12886;SDS011;6511;49.746;6.094;2023-05-07T11:37:22;3.88;;;1.90;;
12886;SDS011;6511;49.746;6.094;2023-05-07T11:39:49;4.90;;;1.65;;
12886;SDS011;6511;49.746;6.094;2023-05-07T11:42:29;1.92;;;1.77;;
12886;SDS011;6511;49.746;6.094;2023-05-07T11:44:55;1.80;;;1.70;;
12886;SDS011;6511;49.746;6.094;2023-05-07T11:47:22;1.92;;;1.70;;
12886;SDS011;6511;49.746;6.094;2023-05-07T11:49:48;2.08;;;1.80;;
12886;SDS011;6511;49.746;6.094;2023-05-07T11:52:15;1.80;;;1.70;;
12886;SDS011;6511;49.746;6.094;2023-05-07T11:54:51;3.03;;;1.50;;
12886;SDS011;6511;49.746;6.094;2023-05-07T11:57:21;2.15;;;1.65;;
12886;SDS011;6511;49.746;6.094;2023-05-07T11:59:47;1.85;;;1.75;;
12886;SDS011;6511;49.746;6.094;2023-05-07T12:02:16;1.70;;;1.50;;
12886;SDS011;6511;49.746;6.094;2023-05-07T12:04:42;2.80;;;1.60;;
12886;SDS011;6511;49.746;6.094;2023-05-07T12:07:12;2.15;;;1.50;;
12886;SDS011;6511;49.746;6.094;2023-05-07T12:09:42;1.67;;;1.57;;
12886;SDS011;6511;49.746;6.094;2023-05-07T12:12:08;2.50;;;1.90;;
12886;SDS011;6511;49.746;6.094;2023-05-07T12:14:40;6.60;;;4.20;;
12886;SDS011;6511;49.746;6.094;2023-05-07T12:17:07;10.93;;;7.68;;
12886;SDS011;6511;49.746;6.094;2023-05-07T12:19:34;6.13;;;4.30;;
12886;SDS011;6511;49.746;6.094;2023-05-07T12:22:01;3.63;;;2.53;;
12886;SDS011;6511;49.746;6.094;2023-05-07T12:24:28;2.83;;;1.70;;
12886;SDS011;6511;49.746;6.094;2023-05-07T12:26:54;1.55;;;1.45;;
12886;SDS011;6511;49.746;6.094;2023-05-07T12:29:23;1.70;;;1.60;;
12886;SDS011;6511;49.746;6.094;2023-05-07T12:31:49;2.83;;;1.70;;
12886;SDS011;6511;49.746;6.094;2023-05-07T12:34:15;2.07;;;1.77;;
12886;SDS011;6511;49.746;6.094;2023-05-07T12:36:41;2.10;;;1.73;;
12886;SDS011;6511;49.746;6.094;2023-05-07T12:39:07;2.53;;;1.80;;
12886;SDS011;6511;49.746;6.094;2023-05-07T12:41:53;3.22;;;1.90;;
12886;SDS011;6511;49.746;6.094;2023-05-07T12:44:26;1.70;;;1.60;;
12886;SDS011;6511;49.746;6.094;2023-05-07T12:46:55;2.00;;;1.70;;
12886;SDS011;6511;49.746;6.094;2023-05-07T12:49:20;1.70;;;1.60;;
12886;SDS011;6511;49.746;6.094;2023-05-07T12:51:48;2.83;;;2.50;;
12886;SDS011;6511;49.746;6.094;2023-05-07T12:54:14;2.78;;;2.28;;
12886;SDS011;6511;49.746;6.094;2023-05-07T12:59:38;1.80;;;1.50;;
12886;SDS011;6511;49.746;6.094;2023-05-07T13:02:05;1.95;;;1.38;;
12886;SDS011;6511;49.746;6.094;2023-05-07T13:04:31;1.90;;;1.45;;
12886;SDS011;6511;49.746;6.094;2023-05-07T13:06:57;2.03;;;1.48;;
12886;SDS011;6511;49.746;6.094;2023-05-07T13:09:23;1.52;;;1.42;;
12886;SDS011;6511;49.746;6.094;2023-05-07T13:11:48;2.20;;;1.65;;
12886;SDS011;6511;49.746;6.094;2023-05-07T13:14:14;1.60;;;1.30;;
12886;SDS011;6511;49.746;6.094;2023-05-07T13:16:40;1.75;;;1.52;;
12886;SDS011;6511;49.746;6.094;2023-05-07T13:19:06;2.47;;;1.47;;
12886;SDS011;6511;49.746;6.094;2023-05-07T13:21:32;2.33;;;1.60;;
12886;SDS011;6511;49.746;6.094;2023-05-07T13:23:57;1.90;;;1.38;;
12886;SDS011;6511;49.746;6.094;2023-05-07T13:26:23;1.98;;;1.55;;
12886;SDS011;6511;49.746;6.094;2023-05-07T13:28:49;1.88;;;1.60;;
12886;SDS011;6511;49.746;6.094;2023-05-07T13:31:16;2.30;;;1.60;;
12886;SDS011;6511;49.746;6.094;2023-05-07T13:33:42;3.25;;;1.70;;
12886;SDS011;6511;49.746;6.094;2023-05-07T13:36:08;2.37;;;1.80;;
12886;SDS011;6511;49.746;6.094;2023-05-07T13:38:34;1.90;;;1.70;;
12886;SDS011;6511;49.746;6.094;2023-05-07T13:41:00;2.30;;;1.60;;
12886;SDS011;6511;49.746;6.094;2023-05-07T13:43:25;2.00;;;1.80;;
12886;SDS011;6511;49.746;6.094;2023-05-07T13:45:51;2.10;;;1.90;;
12886;SDS011;6511;49.746;6.094;2023-05-07T13:48:16;2.10;;;1.80;;
12886;SDS011;6511;49.746;6.094;2023-05-07T13:50:42;2.30;;;2.00;;
12886;SDS011;6511;49.746;6.094;2023-05-07T13:53:08;7.70;;;5.95;;
12886;SDS011;6511;49.746;6.094;2023-05-07T13:55:33;2.43;;;1.93;;
12886;SDS011;6511;49.746;6.094;2023-05-07T13:58:00;2.87;;;2.00;;
12886;SDS011;6511;49.746;6.094;2023-05-07T14:00:27;2.05;;;1.92;;
12886;SDS011;6511;49.746;6.094;2023-05-07T14:02:53;2.38;;;2.17;;
12886;SDS011;6511;49.746;6.094;2023-05-07T14:05:20;2.45;;;2.08;;
12886;SDS011;6511;49.746;6.094;2023-05-07T14:07:48;3.30;;;1.90;;
12886;SDS011;6511;49.746;6.094;2023-05-07T14:10:16;2.90;;;2.30;;
12886;SDS011;6511;49.746;6.094;2023-05-07T14:12:43;2.88;;;2.00;;
12886;SDS011;6511;49.746;6.094;2023-05-07T14:15:09;2.70;;;2.15;;
12886;SDS011;6511;49.746;6.094;2023-05-07T14:17:35;2.60;;;2.05;;
12886;SDS011;6511;49.746;6.094;2023-05-07T14:20:01;2.77;;;2.03;;
12886;SDS011;6511;49.746;6.094;2023-05-07T14:22:27;3.78;;;2.40;;
12886;SDS011;6511;49.746;6.094;2023-05-07T14:24:52;4.07;;;2.00;;
12886;SDS011;6511;49.746;6.094;2023-05-07T14:27:18;3.20;;;2.20;;
12886;SDS011;6511;49.746;6.094;2023-05-07T14:29:43;2.83;;;2.28;;
12886;SDS011;6511;49.746;6.094;2023-05-07T14:32:10;3.25;;;2.20;;
12886;SDS011;6511;49.746;6.094;2023-05-07T14:34:36;2.45;;;2.25;;
12886;SDS011;6511;49.746;6.094;2023-05-07T14:37:01;2.80;;;2.20;;
12886;SDS011;6511;49.746;6.094;2023-05-07T14:39:28;2.38;;;2.10;;
12886;SDS011;6511;49.746;6.094;2023-05-07T14:41:53;3.38;;;2.00;;
12886;SDS011;6511;49.746;6.094;2023-05-07T14:44:20;2.42;;;2.10;;
12886;SDS011;6511;49.746;6.094;2023-05-07T14:46:46;2.80;;;2.40;;
12886;SDS011;6511;49.746;6.094;2023-05-07T14:49:13;2.40;;;2.20;;
12886;SDS011;6511;49.746;6.094;2023-05-07T14:51:42;3.05;;;2.05;;
12886;SDS011;6511;49.746;6.094;2023-05-07T14:54:09;2.50;;;2.05;;
12886;SDS011;6511;49.746;6.094;2023-05-07T14:56:35;3.28;;;2.22;;
12886;SDS011;6511;49.746;6.094;2023-05-07T14:59:01;3.23;;;2.27;;
12886;SDS011;6511;49.746;6.094;2023-05-07T15:01:27;2.60;;;2.03;;
12886;SDS011;6511;49.746;6.094;2023-05-07T15:03:53;3.63;;;2.20;;
12886;SDS011;6511;49.746;6.094;2023-05-07T15:06:19;3.27;;;2.40;;
12886;SDS011;6511;49.746;6.094;2023-05-07T15:08:45;2.40;;;2.20;;
12886;SDS011;6511;49.746;6.094;2023-05-07T15:11:11;2.37;;;2.13;;
12886;SDS011;6511;49.746;6.094;2023-05-07T15:13:37;2.70;;;2.30;;
12886;SDS011;6511;49.746;6.094;2023-05-07T15:16:02;2.70;;;2.20;;
12886;SDS011;6511;49.746;6.094;2023-05-07T15:18:28;2.50;;;2.30;;
12886;SDS011;6511;49.746;6.094;2023-05-07T15:20:54;2.90;;;2.10;;
12886;SDS011;6511;49.746;6.094;2023-05-07T15:23:21;3.22;;;2.40;;
12886;SDS011;6511;49.746;6.094;2023-05-07T15:25:47;2.70;;;2.50;;
12886;SDS011;6511;49.746;6.094;2023-05-07T15:28:12;3.17;;;2.50;;
12886;SDS011;6511;49.746;6.094;2023-05-07T15:30:38;3.07;;;2.27;;
12886;SDS011;6511;49.746;6.094;2023-05-07T15:33:03;3.87;;;2.60;;
12886;SDS011;6511;49.746;6.094;2023-05-07T15:35:29;2.83;;;2.30;;